createdAt,value
2023-01-31T00:00:11.202Z,99845.97
2023-01-31T00:04:00.902Z,99853.36
2023-01-31T00:07:28.352Z,99852.41
2023-01-31T00:10:55.651Z,99863.97
2023-01-31T00:14:25.145Z,99864.30
2023-01-31T00:17:52.208Z,99864.98
2023-01-31T00:21:21.296Z,99868.39
2023-01-31T00:24:48.381Z,99882.38
2023-01-31T00:28:24.609Z,99891.84
2023-01-31T00:31:52.145Z,99892.48
2023-01-31T00:35:19.558Z,99903.17
2023-01-31T00:38:49.255Z,99904.84
2023-01-31T00:42:23.994Z,99908.56
2023-01-31T00:45:51.115Z,99912.48
2023-01-31T00:49:18.296Z,99925.36
2023-01-31T00:52:45.381Z,99930.70
2023-01-31T00:56:14.879Z,99935.33
2023-01-31T00:59:42.431Z,99939.39
2023-01-31T01:03:12.391Z,99939.41
2023-01-31T01:06:43.353Z,99939.89
2023-01-31T01:10:14.747Z,99950.55
2023-01-31T01:13:45.337Z,99958.40
2023-01-31T01:17:15.369Z,99961.28
2023-01-31T01:20:45.492Z,99964.65
2023-01-31T01:24:16.190Z,99971.94
2023-01-31T01:27:43.281Z,99975.54
2023-01-31T01:31:19.147Z,99983.50
2023-01-31T01:34:46.469Z,99992.52
2023-01-31T01:38:14.376Z,100000.02
2023-01-31T01:41:42.238Z,100003.77
2023-01-31T01:45:18.229Z,100008.31
2023-01-31T01:48:53.182Z,100017.20
2023-01-31T01:52:21.236Z,100028.04
2023-01-31T01:55:55.026Z,100028.68
2023-01-31T01:59:27.787Z,100029.88
2023-01-31T02:02:59.684Z,100036.44
2023-01-31T02:06:27.197Z,100035.87
2023-01-31T02:10:01.939Z,100041.20
2023-01-31T02:13:31.042Z,100042.02
2023-01-31T02:16:59.095Z,100051.29
2023-01-31T02:21:06.787Z,100057.95
2023-01-31T02:25:15.888Z,100070.44
2023-01-31T02:29:18.474Z,100076.78
2023-01-31T02:33:08.549Z,100087.13
2023-01-31T02:36:48.549Z,100087.23
2023-01-31T02:40:24.172Z,100096.48
2023-01-31T02:44:17.961Z,100099.52
2023-01-31T02:47:58.182Z,100108.04
2023-01-31T02:51:33.061Z,100112.11
2023-01-31T02:55:33.722Z,100117.24
2023-01-31T02:59:04.072Z,100126.21
2023-01-31T03:02:31.746Z,100131.88
2023-01-31T03:06:27.266Z,100137.02
2023-01-31T03:10:04.002Z,100141.31
2023-01-31T03:13:47.949Z,100153.41
2023-01-31T03:17:33.700Z,100157.21
2023-01-31T03:21:08.707Z,100159.61
2023-01-31T03:24:36.978Z,100165.30
2023-01-31T03:28:09.347Z,100172.73
2023-01-31T03:31:40.987Z,100175.31
2023-01-31T03:35:10.740Z,100180.39
2023-01-31T03:38:50.041Z,100186.02
2023-01-31T03:42:24.796Z,100186.60
2023-01-31T03:45:58.682Z,100189.45
2023-01-31T03:49:29.411Z,100191.96
2023-01-31T03:53:01.234Z,100202.44
2023-01-31T03:56:34.275Z,100205.89
2023-01-31T04:00:05.352Z,100217.86
2023-01-31T04:03:45.344Z,100214.62
2023-01-31T04:07:13.447Z,100213.24
2023-01-31T04:10:41.199Z,100217.75
2023-01-31T04:14:08.993Z,100229.58
2023-01-31T04:17:36.137Z,100238.16
2023-01-31T04:21:03.481Z,100237.01
2023-01-31T04:24:30.680Z,100238.56
2023-01-31T04:28:01.025Z,100239.92
2023-01-31T04:31:28.590Z,100250.05
2023-01-31T04:34:55.723Z,100255.61
2023-01-31T04:38:30.421Z,100254.77
2023-01-31T04:41:57.437Z,100255.77
2023-01-31T04:45:24.440Z,100261.91
2023-01-31T04:48:51.675Z,100265.14
2023-01-31T04:52:18.787Z,100267.31
2023-01-31T04:55:46.152Z,100266.82
2023-01-31T04:59:13.217Z,100271.91
2023-01-31T05:02:40.651Z,100284.66
2023-01-31T05:06:08.604Z,100288.27
2023-01-31T05:09:44.112Z,100292.40
2023-01-31T05:13:14.804Z,100304.09
2023-01-31T05:16:44.163Z,100307.29
2023-01-31T05:20:14.626Z,100308.55
2023-01-31T05:23:41.640Z,100308.24
2023-01-31T05:27:10.736Z,100313.29
2023-01-31T05:30:38.892Z,100313.91
2023-01-31T05:34:06.396Z,100315.55
2023-01-31T05:37:33.418Z,100320.05
2023-01-31T05:41:00.455Z,100332.07
2023-01-31T05:44:27.776Z,100337.20
2023-01-31T05:47:55.010Z,100340.02
2023-01-31T05:51:22.204Z,100345.67
2023-01-31T05:54:49.402Z,100345.19
2023-01-31T05:58:16.886Z,100347.77
2023-01-31T06:01:43.955Z,100354.17
2023-01-31T06:05:12.026Z,100356.70
2023-01-31T06:08:39.188Z,100359.53
2023-01-31T06:12:06.790Z,100366.92
2023-01-31T06:15:34.564Z,100369.50
2023-01-31T06:19:01.991Z,100375.04
2023-01-31T06:22:29.289Z,100378.66
2023-01-31T06:25:57.282Z,100380.77
2023-01-31T06:29:33.951Z,100385.05
2023-01-31T06:33:02.397Z,100390.10
2023-01-31T06:36:29.853Z,100391.84
2023-01-31T06:39:57.080Z,100397.02
2023-01-31T06:43:24.522Z,100398.95
2023-01-31T06:46:54.835Z,100402.27
2023-01-31T06:50:27.984Z,100403.04
2023-01-31T06:53:56.707Z,100408.27
2023-01-31T06:57:24.143Z,100412.73
2023-01-31T07:00:51.412Z,100417.45
2023-01-31T07:04:18.746Z,100419.23
2023-01-31T07:07:46.057Z,100422.11
2023-01-31T07:11:13.180Z,100424.80
2023-01-31T07:14:40.269Z,100432.05
2023-01-31T07:18:07.745Z,100433.06
2023-01-31T07:21:36.625Z,100435.42
2023-01-31T07:25:04.136Z,100444.50
2023-01-31T07:28:31.346Z,100452.59
2023-01-31T07:31:58.783Z,100457.68
2023-01-31T07:35:26.456Z,100459.63
2023-01-31T07:39:00.011Z,100454.20
2023-01-31T07:42:36.676Z,100455.08
2023-01-31T07:46:04.286Z,100454.83
2023-01-31T07:49:31.663Z,100456.45
2023-01-31T07:53:00.336Z,100458.05
2023-01-31T07:56:27.455Z,100462.55
2023-01-31T07:59:54.556Z,100466.09
2023-01-31T08:03:34.055Z,100466.91
2023-01-31T08:07:03.259Z,100469.77
2023-01-31T08:10:30.743Z,100470.27
2023-01-31T08:13:58.105Z,100475.14
2023-01-31T08:17:28.577Z,100470.29
2023-01-31T08:20:59.549Z,100473.32
2023-01-31T08:24:26.765Z,100469.59
2023-01-31T08:27:53.925Z,100473.48
2023-01-31T08:31:27.586Z,100482.06
2023-01-31T08:34:54.838Z,100483.70
2023-01-31T08:38:22.057Z,100493.12
2023-01-31T08:42:00.402Z,100489.52
2023-01-31T08:45:31.468Z,100494.39
2023-01-31T08:48:58.842Z,100499.67
2023-01-31T08:52:26.105Z,100495.61
2023-01-31T08:56:03.004Z,100484.59
2023-01-31T08:59:30.469Z,100482.73
2023-01-31T09:02:59.414Z,100484.16
2023-01-31T09:06:27.612Z,100488.38
2023-01-31T09:09:55.020Z,100490.48
2023-01-31T09:13:22.404Z,100481.73
2023-01-31T09:16:49.671Z,100487.29
2023-01-31T09:20:17.081Z,100487.74
2023-01-31T09:23:47.721Z,100497.11
2023-01-31T09:27:17.653Z,100498.46
2023-01-31T09:30:44.839Z,100497.97
2023-01-31T09:34:19.810Z,100496.83
2023-01-31T09:37:47.050Z,100501.90
2023-01-31T09:41:21.704Z,100498.92
2023-01-31T09:45:09.172Z,100506.99
2023-01-31T09:48:41.663Z,100510.68
2023-01-31T09:52:12.162Z,100503.67
2023-01-31T09:55:48.228Z,100505.13
2023-01-31T09:59:23.710Z,100498.56
2023-01-31T10:03:27.566Z,100502.18
2023-01-31T10:07:02.883Z,100495.55
2023-01-31T10:10:37.066Z,100500.69
2023-01-31T10:14:25.319Z,100492.75
2023-01-31T10:18:02.293Z,100492.95
2023-01-31T10:21:37.479Z,100493.42
2023-01-31T10:25:20.018Z,100492.34
2023-01-31T10:28:56.349Z,100485.20
2023-01-31T10:32:30.244Z,100487.68
2023-01-31T10:36:03.531Z,100493.98
2023-01-31T10:39:35.276Z,100490.04
2023-01-31T10:43:11.440Z,100486.36
2023-01-31T10:46:38.526Z,100480.03
2023-01-31T10:50:16.961Z,100471.87
2023-01-31T10:54:29.566Z,100458.45
2023-01-31T10:57:58.300Z,100459.02
2023-01-31T11:01:30.143Z,100458.61
2023-01-31T11:04:59.059Z,100457.77
2023-01-31T11:08:35.155Z,100449.42
2023-01-31T11:12:05.292Z,100439.42
2023-01-31T11:15:39.168Z,100439.40
2023-01-31T11:19:20.853Z,100433.51
2023-01-31T11:22:58.931Z,100426.97
2023-01-31T11:26:32.604Z,100423.17
2023-01-31T11:30:00.766Z,100420.48
2023-01-31T11:33:56.872Z,100416.69
2023-01-31T11:37:32.093Z,100410.34
2023-01-31T11:41:01.196Z,100413.55
2023-01-31T11:44:31.427Z,100412.91
2023-01-31T11:48:01.028Z,100408.73
2023-01-31T11:51:30.947Z,100402.61
2023-01-31T11:55:01.602Z,100398.73
2023-01-31T11:58:35.581Z,100392.06
2023-01-31T12:02:04.063Z,100384.61
2023-01-31T12:05:40.615Z,100382.92
2023-01-31T12:09:22.364Z,100373.36
2023-01-31T12:12:54.459Z,100370.08
2023-01-31T12:16:24.031Z,100358.39
2023-01-31T12:20:02.282Z,100352.21
2023-01-31T12:23:41.191Z,100344.05
2023-01-31T12:27:21.503Z,100347.86
2023-01-31T12:31:04.520Z,100338.38
2023-01-31T12:35:01.697Z,100338.13
2023-01-31T12:39:00.719Z,100338.16
2023-01-31T12:42:46.841Z,100324.55
2023-01-31T12:46:24.610Z,100314.94
2023-01-31T12:50:23.122Z,100306.67
2023-01-31T12:54:06.067Z,100297.41
2023-01-31T12:57:46.443Z,100291.21
2023-01-31T13:01:18.455Z,100279.25
2023-01-31T13:04:51.255Z,100272.13
2023-01-31T13:08:22.625Z,100266.59
2023-01-31T13:11:56.173Z,100260.29
2023-01-31T13:15:32.151Z,100258.95
2023-01-31T13:19:02.391Z,100258.03
2023-01-31T13:22:46.203Z,100255.89
2023-01-31T13:26:20.000Z,100253.60
2023-01-31T13:29:53.482Z,100249.65
2023-01-31T13:33:30.365Z,100248.00
2023-01-31T13:37:02.530Z,100248.90
2023-01-31T13:40:32.747Z,100250.16
2023-01-31T13:44:02.564Z,100234.96
2023-01-31T13:47:41.753Z,100231.20
2023-01-31T13:51:18.005Z,100229.41
2023-01-31T13:54:50.118Z,100221.13
2023-01-31T13:58:20.954Z,100210.75
2023-01-31T14:02:02.663Z,100211.58
2023-01-31T14:06:00.801Z,100203.50
2023-01-31T14:09:30.553Z,100194.81
2023-01-31T14:13:38.911Z,100190.09
2023-01-31T14:17:13.435Z,100179.95
2023-01-31T14:20:40.491Z,100174.15
2023-01-31T14:24:19.249Z,100170.81
2023-01-31T14:28:02.309Z,100167.75
2023-01-31T14:31:37.441Z,100163.39
2023-01-31T14:35:19.049Z,100161.09
2023-01-31T14:39:04.687Z,100162.88
2023-01-31T14:42:54.742Z,100165.66
2023-01-31T14:47:16.063Z,100157.85
2023-01-31T14:50:58.807Z,100149.97
2023-01-31T14:54:53.299Z,100140.23
2023-01-31T14:58:25.337Z,100135.09
2023-01-31T15:01:52.591Z,100130.49
2023-01-31T15:05:23.982Z,100126.44
2023-01-31T15:09:15.599Z,100127.75
2023-01-31T15:13:00.923Z,100123.75
2023-01-31T15:16:30.991Z,100120.98
2023-01-31T15:20:05.867Z,100114.76
2023-01-31T15:23:36.881Z,100113.33
2023-01-31T15:27:09.716Z,100108.30
2023-01-31T15:30:41.213Z,100101.21
2023-01-31T15:34:17.321Z,100107.74
2023-01-31T15:37:45.709Z,100099.63
2023-01-31T15:41:22.698Z,100093.14
2023-01-31T15:44:50.001Z,100086.74
2023-01-31T15:48:22.751Z,100077.59
2023-01-31T15:52:05.514Z,100075.20
2023-01-31T15:55:33.860Z,100070.83
2023-01-31T15:59:15.387Z,100063.23
2023-01-31T16:02:42.727Z,100058.53
2023-01-31T16:06:26.141Z,100056.06
2023-01-31T16:09:53.680Z,100050.81
2023-01-31T16:13:22.128Z,100041.48
2023-01-31T16:16:51.147Z,100034.08
2023-01-31T16:20:40.666Z,100033.02
2023-01-31T16:24:15.770Z,100024.21
2023-01-31T16:27:45.377Z,100022.65
2023-01-31T16:31:15.768Z,100020.61
2023-01-31T16:34:43.507Z,100014.58
2023-01-31T16:38:21.782Z,100010.95
2023-01-31T16:41:57.324Z,100003.36
2023-01-31T16:45:34.395Z,99999.21
2023-01-31T16:49:18.926Z,99999.90
2023-01-31T16:52:47.660Z,99992.44
2023-01-31T16:56:24.919Z,99987.45
2023-01-31T16:59:54.088Z,99982.06
2023-01-31T17:03:21.827Z,99980.09
2023-01-31T17:06:53.332Z,99967.29
2023-01-31T17:10:27.127Z,99961.77
2023-01-31T17:13:56.024Z,99952.95
2023-01-31T17:17:23.130Z,99945.23
2023-01-31T17:20:51.193Z,99939.34
2023-01-31T17:24:23.739Z,99927.76
2023-01-31T17:27:51.509Z,99927.05
2023-01-31T17:31:21.816Z,99919.59
2023-01-31T17:34:49.688Z,99916.82
2023-01-31T17:38:16.750Z,99914.42
2023-01-31T17:41:46.890Z,99909.98
2023-01-31T17:45:18.876Z,99912.78
2023-01-31T17:48:46.375Z,99909.57
2023-01-31T17:52:13.779Z,99901.35
2023-01-31T17:55:41.118Z,99898.01
2023-01-31T17:59:12.303Z,99893.09
2023-01-31T18:02:43.890Z,99888.16
2023-01-31T18:06:12.391Z,99885.48
2023-01-31T18:09:39.733Z,99877.29
2023-01-31T18:13:06.853Z,99868.98
2023-01-31T18:16:34.126Z,99857.88
2023-01-31T18:20:01.213Z,99852.98
2023-01-31T18:23:28.705Z,99846.36
2023-01-31T18:26:57.169Z,99849.05
2023-01-31T18:30:25.453Z,99834.51
2023-01-31T18:33:53.124Z,99829.63
2023-01-31T18:37:22.214Z,99825.25
2023-01-31T18:40:50.087Z,99821.36
2023-01-31T18:44:17.797Z,99819.58
2023-01-31T18:47:45.651Z,99818.52
2023-01-31T18:51:15.089Z,99809.65
2023-01-31T18:54:42.757Z,99790.97
2023-01-31T18:58:10.176Z,99774.65
2023-01-31T19:01:41.546Z,99777.53
2023-01-31T19:05:23.654Z,99786.27
2023-01-31T19:08:52.675Z,99792.55
2023-01-31T19:12:20.037Z,99796.66
2023-01-31T19:15:47.193Z,99802.15
2023-01-31T19:19:15.171Z,99792.97
2023-01-31T19:22:42.831Z,99778.88
2023-01-31T19:26:10.945Z,99775.17
2023-01-31T19:29:39.888Z,99776.15
2023-01-31T19:33:07.884Z,99773.85
2023-01-31T19:36:37.687Z,99764.96
2023-01-31T19:40:06.144Z,99759.05
2023-01-31T19:43:33.863Z,99758.80
2023-01-31T19:47:01.907Z,99749.88
2023-01-31T19:50:30.513Z,99742.34
2023-01-31T19:54:01.301Z,99743.04
2023-01-31T19:57:30.541Z,99734.23
2023-01-31T20:00:59.923Z,99736.30
2023-01-31T20:04:30.890Z,99728.02
2023-01-31T20:07:59.322Z,99710.41
2023-01-31T20:11:29.149Z,99708.86
2023-01-31T20:14:57.690Z,99708.23
2023-01-31T20:18:26.646Z,99699.10
2023-01-31T20:21:55.351Z,99689.10
2023-01-31T20:25:24.738Z,99683.80
2023-01-31T20:28:53.915Z,99678.49
2023-01-31T20:32:23.033Z,99681.48
2023-01-31T20:35:52.069Z,99684.99
2023-01-31T20:39:20.589Z,99674.16
2023-01-31T20:42:49.011Z,99678.27
2023-01-31T20:46:21.281Z,99682.34
2023-01-31T20:49:52.676Z,99678.27
2023-01-31T20:53:22.738Z,99683.84
2023-01-31T20:56:51.997Z,99695.40
2023-01-31T21:00:22.086Z,99706.62
2023-01-31T21:03:49.831Z,99709.12
2023-01-31T21:07:17.259Z,99699.60
2023-01-31T21:10:49.293Z,99705.34
2023-01-31T21:14:16.937Z,99707.75
2023-01-31T21:17:44.817Z,99706.86
2023-01-31T21:21:15.133Z,99712.79
2023-01-31T21:24:43.314Z,99746.34
2023-01-31T21:28:11.948Z,99793.36
2023-01-31T21:31:40.279Z,99792.69
2023-01-31T21:35:09.096Z,99796.09
2023-01-31T21:38:36.647Z,99792.13
2023-01-31T21:42:16.856Z,99784.17
2023-01-31T21:45:44.192Z,99776.46
2023-01-31T21:49:11.205Z,99777.04
2023-01-31T21:52:38.424Z,99778.03
2023-01-31T21:56:07.468Z,99783.80
2023-01-31T21:59:34.513Z,99783.27
2023-01-31T22:03:02.101Z,99785.73
2023-01-31T22:06:35.002Z,99783.33
2023-01-31T22:10:02.403Z,99784.40
2023-01-31T22:13:30.165Z,99789.67
2023-01-31T22:16:57.158Z,99793.20
2023-01-31T22:20:24.400Z,99792.14
2023-01-31T22:23:54.156Z,99796.81
2023-01-31T22:27:21.430Z,99803.13
2023-01-31T22:30:57.185Z,99800.23
2023-01-31T22:34:24.369Z,99795.27
2023-01-31T22:37:51.831Z,99796.06
2023-01-31T22:41:20.238Z,99796.95
2023-01-31T22:44:47.575Z,99799.98
2023-01-31T22:48:15.392Z,99797.59
2023-01-31T22:51:42.472Z,99791.04
2023-01-31T22:55:10.694Z,99788.00
2023-01-31T22:58:37.713Z,99780.00
2023-01-31T23:02:05.131Z,99775.55
2023-01-31T23:05:32.373Z,99774.45
2023-01-31T23:08:59.821Z,99776.36
2023-01-31T23:12:26.809Z,99774.25
2023-01-31T23:15:54.770Z,99771.57
2023-01-31T23:19:21.806Z,99770.91
2023-01-31T23:22:51.932Z,99769.08
2023-01-31T23:26:19.060Z,99770.38
2023-01-31T23:29:46.163Z,99774.94
2023-01-31T23:33:13.187Z,99781.06
2023-01-31T23:36:49.243Z,99773.00
2023-01-31T23:40:16.623Z,99776.84
2023-01-31T23:43:43.887Z,99773.59
2023-01-31T23:47:11.057Z,99777.61
2023-01-31T23:50:39.689Z,99781.40
2023-01-31T23:54:06.934Z,99778.42
2023-01-31T23:57:33.836Z,99781.43
